createdAt,value
2022-11-28T00:01:44.977Z,55.50
2022-11-28T00:04:11.418Z,55.50
2022-11-28T00:06:38.142Z,55.50
2022-11-28T00:09:04.696Z,56.10
2022-11-28T00:11:31.092Z,55.70
2022-11-28T00:13:57.672Z,55.70
2022-11-28T00:16:24.185Z,55.80
2022-11-28T00:18:50.666Z,55.80
2022-11-28T00:21:17.251Z,55.80
2022-11-28T00:23:43.831Z,55.90
2022-11-28T00:26:10.224Z,56.10
2022-11-28T00:28:36.654Z,56.00
2022-11-28T00:31:03.047Z,56.00
2022-11-28T00:33:29.500Z,56.00
2022-11-28T00:35:55.896Z,56.10
2022-11-28T00:38:22.468Z,56.20
2022-11-28T00:40:48.847Z,56.30
2022-11-28T00:43:15.260Z,56.30
2022-11-28T00:45:41.719Z,56.30
2022-11-28T00:48:08.196Z,56.30
2022-11-28T00:50:34.736Z,56.40
2022-11-28T00:53:01.145Z,56.40
2022-11-28T00:55:27.617Z,56.40
2022-11-28T00:57:54.014Z,56.40
2022-11-28T01:00:20.459Z,57.00
2022-11-28T01:02:46.907Z,56.50
2022-11-28T01:05:13.334Z,56.40
2022-11-28T01:07:39.794Z,56.60
2022-11-28T01:10:06.249Z,56.70
2022-11-28T01:12:32.633Z,56.70
2022-11-28T01:14:59.026Z,56.70
2022-11-28T01:17:25.617Z,56.80
2022-11-28T01:19:52.016Z,57.00
2022-11-28T01:22:18.401Z,56.90
2022-11-28T01:24:44.877Z,57.00
2022-11-28T01:27:11.412Z,57.00
2022-11-28T01:29:37.826Z,57.00
2022-11-28T01:32:04.229Z,57.40
2022-11-28T01:34:30.649Z,57.00
2022-11-28T01:36:57.134Z,57.50
2022-11-28T01:39:23.541Z,57.10
2022-11-28T01:41:49.933Z,57.20
2022-11-28T01:44:16.347Z,57.20
2022-11-28T01:46:42.805Z,57.20
2022-11-28T01:49:09.254Z,57.20
2022-11-28T01:51:35.731Z,57.30
2022-11-28T01:54:02.113Z,57.20
2022-11-28T01:56:28.697Z,57.30
2022-11-28T01:58:55.098Z,57.30
2022-11-28T02:01:21.778Z,57.30
2022-11-28T02:03:48.318Z,57.30
2022-11-28T02:06:14.711Z,57.30
2022-11-28T02:08:41.103Z,57.40
2022-11-28T02:11:07.519Z,57.40
2022-11-28T02:13:33.930Z,57.40
2022-11-28T02:16:00.373Z,57.40
2022-11-28T02:18:27.085Z,57.50
2022-11-28T02:20:53.506Z,57.50
2022-11-28T02:23:19.904Z,57.50
2022-11-28T02:25:46.305Z,57.90
2022-11-28T02:28:12.703Z,57.40
2022-11-28T02:30:39.129Z,57.40
2022-11-28T02:33:05.557Z,57.60
2022-11-28T02:35:31.976Z,57.50
2022-11-28T02:37:58.404Z,57.50
2022-11-28T02:40:24.809Z,57.60
2022-11-28T02:42:51.198Z,57.60
2022-11-28T02:45:17.597Z,58.10
2022-11-28T02:47:44.007Z,57.70
2022-11-28T02:50:10.422Z,57.70
2022-11-28T02:52:37.025Z,57.70
2022-11-28T02:55:03.437Z,57.70
2022-11-28T02:57:29.845Z,57.70
2022-11-28T02:59:56.267Z,57.80
2022-11-28T03:02:22.733Z,57.80
2022-11-28T03:04:49.370Z,57.80
2022-11-28T03:07:15.819Z,57.90
2022-11-28T03:09:42.216Z,57.80
2022-11-28T03:12:08.714Z,57.90
2022-11-28T03:14:35.116Z,57.90
2022-11-28T03:17:01.698Z,57.90
2022-11-28T03:19:28.099Z,57.90
2022-11-28T03:21:54.473Z,58.00
2022-11-28T03:24:20.873Z,58.10
2022-11-28T03:26:47.266Z,58.10
2022-11-28T03:29:13.673Z,58.00
2022-11-28T03:31:40.110Z,58.10
2022-11-28T03:34:06.562Z,58.00
2022-11-28T03:36:33.148Z,58.10
2022-11-28T03:38:59.553Z,58.10
2022-11-28T03:41:25.935Z,58.10
2022-11-28T03:43:52.344Z,58.10
2022-11-28T03:46:18.988Z,58.10
2022-11-28T03:48:45.457Z,58.10
2022-11-28T03:51:11.853Z,58.10
2022-11-28T03:53:38.290Z,58.30
2022-11-28T03:56:04.769Z,58.20
2022-11-28T03:58:31.197Z,58.20
2022-11-28T04:00:57.643Z,58.30
2022-11-28T04:03:24.131Z,58.20
2022-11-28T04:05:50.636Z,58.30
2022-11-28T04:08:17.043Z,58.30
2022-11-28T04:10:43.460Z,58.20
2022-11-28T04:13:10.065Z,58.20
2022-11-28T04:15:36.617Z,58.30
2022-11-28T04:18:03.043Z,58.20
2022-11-28T04:20:29.650Z,58.30
2022-11-28T04:22:56.052Z,58.30
2022-11-28T04:25:22.488Z,58.20
2022-11-28T04:27:48.899Z,58.30
2022-11-28T04:30:15.522Z,58.30
2022-11-28T04:32:41.919Z,58.20
2022-11-28T04:35:08.359Z,58.30
2022-11-28T04:37:34.735Z,58.20
2022-11-28T04:40:01.142Z,58.30
2022-11-28T04:42:27.555Z,58.30
2022-11-28T04:44:53.961Z,58.20
2022-11-28T04:47:20.346Z,58.50
2022-11-28T04:49:46.753Z,58.50
2022-11-28T04:52:13.150Z,58.40
2022-11-28T04:54:39.696Z,58.40
2022-11-28T04:57:06.286Z,58.40
2022-11-28T04:59:32.736Z,58.40
2022-11-28T05:01:59.170Z,58.30
2022-11-28T05:04:25.606Z,58.40
2022-11-28T05:06:52.002Z,58.30
2022-11-28T05:09:18.417Z,58.40
2022-11-28T05:11:44.821Z,58.40
2022-11-28T05:14:11.224Z,58.50
2022-11-28T05:16:37.669Z,58.50
2022-11-28T05:19:04.084Z,58.60
2022-11-28T05:21:30.591Z,57.80
2022-11-28T05:23:56.992Z,55.70
2022-11-28T05:26:23.395Z,54.10
2022-11-28T05:28:49.781Z,54.30
2022-11-28T05:31:16.313Z,53.80
2022-11-28T05:33:42.765Z,53.80
2022-11-28T05:36:12.869Z,53.10
2022-11-28T05:38:39.446Z,53.00
2022-11-28T05:41:05.851Z,52.70
2022-11-28T05:43:32.335Z,52.40
2022-11-28T05:45:58.778Z,54.60
2022-11-28T05:48:25.246Z,55.40
2022-11-28T05:50:51.628Z,55.90
2022-11-28T05:53:18.018Z,55.50
2022-11-28T05:55:44.533Z,55.60
2022-11-28T05:58:10.903Z,55.60
2022-11-28T06:00:37.310Z,55.60
2022-11-28T06:03:03.687Z,55.60
2022-11-28T06:05:42.147Z,55.60
2022-11-28T06:08:09.401Z,55.70
2022-11-28T06:10:35.983Z,55.70
2022-11-28T06:13:02.365Z,55.70
2022-11-28T06:15:28.761Z,55.70
2022-11-28T06:17:55.189Z,55.70
2022-11-28T06:20:21.577Z,55.70
2022-11-28T06:22:47.965Z,55.70
2022-11-28T06:25:14.360Z,55.70
2022-11-28T06:27:40.735Z,55.70
2022-11-28T06:30:07.129Z,55.70
2022-11-28T06:32:33.509Z,55.70
2022-11-28T06:34:59.913Z,55.70
2022-11-28T06:37:26.321Z,55.70
2022-11-28T06:39:52.739Z,55.70
2022-11-28T06:42:19.116Z,55.70
2022-11-28T06:44:45.492Z,55.70
2022-11-28T06:47:11.886Z,55.70
2022-11-28T06:49:38.268Z,55.70
2022-11-28T06:52:04.665Z,55.70
2022-11-28T06:54:31.060Z,55.70
2022-11-28T06:56:57.434Z,55.70
2022-11-28T06:59:23.866Z,55.60
2022-11-28T07:01:50.353Z,55.70
2022-11-28T07:04:16.763Z,55.60
2022-11-28T07:06:43.148Z,55.60
2022-11-28T07:09:09.536Z,55.60
2022-11-28T07:11:35.930Z,55.60
2022-11-28T07:14:02.314Z,55.60
2022-11-28T07:16:28.807Z,55.60
2022-11-28T07:18:55.239Z,55.60
2022-11-28T07:21:21.627Z,55.60
2022-11-28T07:23:48.014Z,55.60
2022-11-28T07:26:14.414Z,55.60
2022-11-28T07:28:40.801Z,55.60
2022-11-28T07:31:07.194Z,55.60
2022-11-28T07:33:33.628Z,55.60
2022-11-28T07:36:00.025Z,55.50
2022-11-28T07:38:26.409Z,55.50
2022-11-28T07:40:52.803Z,55.60
2022-11-28T07:43:19.388Z,55.60
2022-11-28T07:46:00.135Z,55.60
2022-11-28T07:48:27.636Z,55.50
2022-11-28T07:50:54.046Z,55.60
2022-11-28T07:53:20.475Z,55.60
2022-11-28T07:55:46.882Z,55.60
2022-11-28T07:58:13.285Z,55.50
2022-11-28T08:00:39.688Z,55.50
2022-11-28T08:03:06.269Z,55.60
2022-11-28T08:05:32.677Z,55.60
2022-11-28T08:07:59.157Z,55.50
2022-11-28T08:10:25.670Z,55.60
2022-11-28T08:12:52.076Z,55.50
2022-11-28T08:15:18.474Z,55.60
2022-11-28T08:17:44.870Z,55.50
2022-11-28T08:20:11.479Z,55.60
2022-11-28T08:22:37.880Z,55.50
2022-11-28T08:25:04.262Z,55.50
2022-11-28T08:27:30.657Z,55.50
2022-11-28T08:29:57.069Z,55.50
2022-11-28T08:32:23.456Z,55.50
2022-11-28T08:34:49.853Z,55.50
2022-11-28T08:37:16.264Z,55.50
2022-11-28T08:39:42.999Z,55.50
2022-11-28T08:42:09.530Z,55.50
2022-11-28T08:44:36.121Z,55.50
2022-11-28T08:47:02.534Z,55.50
2022-11-28T08:49:29.133Z,55.50
2022-11-28T08:51:55.538Z,55.50
2022-11-28T08:54:22.119Z,55.50
2022-11-28T08:56:48.553Z,55.40
2022-11-28T08:59:14.946Z,55.40
2022-11-28T09:01:41.386Z,55.40
2022-11-28T09:04:07.939Z,55.50
2022-11-28T09:06:34.431Z,55.40
2022-11-28T09:09:00.837Z,55.50
2022-11-28T09:11:27.245Z,55.50
2022-11-28T09:13:53.646Z,55.50
2022-11-28T09:16:20.125Z,55.50
2022-11-28T09:18:46.606Z,55.40
2022-11-28T09:21:13.160Z,55.40
2022-11-28T09:23:39.588Z,55.40
2022-11-28T09:26:05.996Z,55.40
2022-11-28T09:28:32.379Z,55.40
2022-11-28T09:30:58.798Z,55.50
2022-11-28T09:33:25.211Z,55.40
2022-11-28T09:35:51.647Z,55.40
2022-11-28T09:38:18.229Z,55.40
2022-11-28T09:40:44.636Z,55.40
2022-11-28T09:43:11.051Z,55.40
2022-11-28T09:45:37.466Z,55.50
2022-11-28T09:48:03.906Z,55.40
2022-11-28T09:50:30.315Z,55.40
2022-11-28T09:52:56.780Z,55.40
2022-11-28T09:55:23.221Z,55.30
2022-11-28T09:57:49.646Z,55.40
2022-11-28T10:00:16.049Z,55.40
2022-11-28T10:02:42.636Z,55.40
2022-11-28T10:05:09.234Z,55.40
2022-11-28T10:07:35.688Z,55.30
2022-11-28T10:10:02.123Z,55.30
2022-11-28T10:12:28.544Z,55.30
2022-11-28T10:14:55.020Z,55.40
2022-11-28T10:17:21.434Z,55.30
2022-11-28T10:19:55.352Z,55.30
2022-11-28T10:22:21.897Z,55.40
2022-11-28T10:24:48.283Z,55.40
2022-11-28T10:27:14.683Z,55.30
2022-11-28T10:29:41.605Z,55.30
2022-11-28T10:32:08.400Z,55.30
2022-11-28T10:34:34.796Z,55.30
2022-11-28T10:37:01.207Z,55.80
2022-11-28T10:39:27.679Z,55.30
2022-11-28T10:41:54.085Z,55.30
2022-11-28T10:44:21.783Z,55.30
2022-11-28T10:46:48.372Z,55.30
2022-11-28T10:49:14.776Z,55.30
2022-11-28T10:51:41.203Z,55.20
2022-11-28T10:54:07.634Z,55.30
2022-11-28T10:56:34.029Z,55.30
2022-11-28T10:59:00.445Z,55.20
2022-11-28T11:01:26.892Z,55.20
2022-11-28T11:03:53.333Z,55.20
2022-11-28T11:06:19.737Z,55.20
2022-11-28T11:08:46.156Z,55.10
2022-11-28T11:11:12.583Z,55.10
2022-11-28T11:13:38.967Z,55.00
2022-11-28T11:16:05.415Z,55.00
2022-11-28T11:18:31.835Z,55.00
2022-11-28T11:20:58.263Z,55.10
2022-11-28T11:23:24.702Z,55.10
2022-11-28T11:25:51.281Z,55.00
2022-11-28T11:28:17.691Z,55.10
2022-11-28T11:30:44.309Z,55.00
2022-11-28T11:33:10.716Z,55.00
2022-11-28T11:35:37.102Z,55.00
2022-11-28T11:38:03.495Z,55.00
2022-11-28T11:40:29.892Z,55.00
2022-11-28T11:42:56.281Z,55.10
2022-11-28T11:45:22.661Z,55.00
2022-11-28T11:47:49.068Z,55.00
2022-11-28T11:50:15.489Z,55.00
2022-11-28T11:52:41.925Z,55.50
2022-11-28T11:55:08.313Z,55.00
2022-11-28T11:57:34.977Z,55.10
2022-11-28T12:00:01.501Z,55.00
2022-11-28T12:02:27.975Z,55.10
2022-11-28T12:04:55.615Z,55.10
2022-11-28T12:07:22.262Z,55.00
2022-11-28T12:09:48.907Z,55.00
2022-11-28T12:12:15.317Z,55.00
2022-11-28T12:14:41.825Z,55.00
2022-11-28T12:17:32.632Z,55.10
2022-11-28T12:19:54.857Z,55.20
2022-11-28T12:22:21.276Z,55.10
2022-11-28T12:24:48.046Z,55.20
2022-11-28T12:27:14.775Z,55.30
2022-11-28T12:29:41.251Z,55.30
2022-11-28T12:32:07.907Z,55.30
2022-11-28T12:34:34.288Z,55.20
2022-11-28T12:37:00.704Z,55.20
2022-11-28T12:39:27.088Z,55.10
2022-11-28T12:41:53.489Z,55.10
2022-11-28T12:44:19.913Z,55.20
2022-11-28T12:46:46.375Z,55.20
2022-11-28T12:49:12.789Z,55.20
2022-11-28T12:51:39.233Z,55.20
2022-11-28T12:54:05.741Z,55.10
2022-11-28T12:56:32.219Z,55.20
2022-11-28T12:58:58.628Z,55.10
2022-11-28T13:01:25.100Z,55.20
2022-11-28T13:03:51.559Z,55.20
2022-11-28T13:06:17.974Z,55.10
2022-11-28T13:08:48.433Z,55.10
2022-11-28T13:11:15.331Z,55.10
2022-11-28T13:13:41.769Z,55.00
2022-11-28T13:16:08.529Z,55.10
2022-11-28T13:18:34.988Z,55.00
2022-11-28T13:21:01.639Z,55.00
2022-11-28T13:23:28.041Z,55.10
2022-11-28T13:25:54.465Z,55.00
2022-11-28T13:28:20.891Z,55.10
2022-11-28T13:30:47.401Z,55.10
2022-11-28T13:33:13.873Z,55.10
2022-11-28T13:35:40.273Z,55.10
2022-11-28T13:40:53.079Z,55.20
2022-11-28T13:43:19.547Z,55.20
2022-11-28T13:45:46.079Z,55.20
2022-11-28T13:48:12.497Z,55.30
2022-11-28T13:50:38.914Z,55.20
2022-11-28T13:53:05.328Z,55.20
2022-11-28T13:55:31.729Z,55.20
2022-11-28T13:57:58.144Z,55.20
2022-11-28T14:00:24.602Z,55.20
2022-11-28T14:02:51.116Z,55.20
2022-11-28T14:05:23.044Z,55.20
2022-11-28T14:07:52.556Z,55.10
2022-11-28T14:10:19.018Z,55.20
2022-11-28T14:12:45.428Z,55.10
2022-11-28T14:15:11.840Z,55.10
2022-11-28T14:17:38.247Z,55.10
2022-11-28T14:20:04.792Z,55.20
2022-11-28T14:22:31.216Z,55.10
2022-11-28T14:24:57.615Z,55.10
2022-11-28T14:27:24.169Z,55.10
2022-11-28T14:29:50.575Z,55.00
2022-11-28T14:32:30.361Z,55.10
2022-11-28T14:34:57.514Z,55.00
2022-11-28T14:37:24.012Z,55.00
2022-11-28T14:39:50.407Z,54.90
2022-11-28T14:45:08.189Z,54.70
2022-11-28T14:47:35.006Z,54.80
2022-11-28T14:50:01.430Z,54.90
2022-11-28T14:52:43.136Z,54.40
2022-11-28T14:55:09.543Z,54.80
2022-11-28T14:57:35.993Z,54.80
2022-11-28T15:00:02.377Z,54.80
2022-11-28T15:02:28.887Z,54.70
2022-11-28T15:04:55.337Z,54.70
2022-11-28T15:07:21.811Z,54.60
2022-11-28T15:09:48.248Z,54.70
2022-11-28T15:12:14.658Z,54.70
2022-11-28T15:14:41.158Z,54.60
2022-11-28T15:17:07.586Z,54.70
2022-11-28T15:19:33.993Z,54.70
2022-11-28T15:22:00.428Z,54.80
2022-11-28T15:24:26.805Z,54.90
2022-11-28T15:26:57.408Z,54.90
2022-11-28T15:29:24.273Z,54.90
2022-11-28T15:31:50.766Z,54.50
2022-11-28T15:34:17.219Z,54.60
2022-11-28T15:36:43.616Z,55.10
2022-11-28T15:39:10.037Z,54.70
2022-11-28T15:41:36.449Z,54.60
2022-11-28T15:44:02.871Z,54.50
2022-11-28T15:46:29.305Z,54.40
2022-11-28T15:48:55.741Z,54.60
2022-11-28T15:51:22.136Z,54.50
2022-11-28T15:53:48.549Z,54.50
2022-11-28T15:56:14.937Z,54.60
2022-11-28T15:58:41.352Z,54.60
2022-11-28T16:01:07.803Z,54.60
2022-11-28T16:03:34.303Z,54.60
2022-11-28T16:06:00.715Z,54.60
2022-11-28T16:08:27.180Z,54.50
2022-11-28T16:10:53.589Z,54.50
2022-11-28T16:13:20.007Z,54.50
2022-11-28T16:15:49.856Z,54.60
2022-11-28T16:18:16.614Z,54.40
2022-11-28T16:20:43.030Z,54.30
2022-11-28T16:23:09.502Z,54.40
2022-11-28T16:25:36.018Z,54.30
2022-11-28T16:28:02.403Z,54.30
2022-11-28T16:30:29.000Z,54.30
2022-11-28T16:32:55.614Z,54.20
2022-11-28T16:35:22.024Z,54.30
2022-11-28T16:37:48.439Z,54.20
2022-11-28T16:40:14.839Z,54.20
2022-11-28T16:42:41.248Z,54.30
2022-11-28T16:45:07.643Z,54.20
2022-11-28T16:47:34.037Z,54.30
2022-11-28T16:50:00.470Z,54.20
2022-11-28T16:52:26.857Z,54.30
2022-11-28T16:54:53.261Z,54.30
2022-11-28T16:57:19.644Z,54.30
2022-11-28T16:59:46.410Z,54.30
2022-11-28T17:02:13.120Z,54.30
2022-11-28T17:04:39.532Z,54.30
2022-11-28T17:07:05.962Z,54.30
2022-11-28T17:09:32.371Z,54.30
2022-11-28T17:11:58.762Z,54.30
2022-11-28T17:14:25.161Z,54.30
2022-11-28T17:16:51.614Z,54.40
2022-11-28T17:19:18.039Z,54.40
2022-11-28T17:21:44.436Z,54.40
2022-11-28T17:24:10.840Z,54.50
2022-11-28T17:26:37.226Z,54.40
2022-11-28T17:29:03.635Z,54.40
2022-11-28T17:31:30.206Z,54.30
2022-11-28T17:33:56.650Z,54.30
2022-11-28T17:36:23.028Z,54.40
2022-11-28T17:38:49.434Z,54.40
2022-11-28T17:41:15.829Z,54.40
2022-11-28T17:43:42.434Z,55.00
2022-11-28T17:46:08.885Z,54.40
2022-11-28T17:48:35.321Z,54.40
2022-11-28T17:51:01.701Z,54.50
2022-11-28T17:53:28.107Z,54.50
2022-11-28T17:55:54.492Z,54.40
2022-11-28T17:58:21.107Z,54.40
2022-11-28T18:00:47.561Z,54.40
2022-11-28T18:03:13.994Z,54.40
2022-11-28T18:05:40.398Z,54.50
2022-11-28T18:08:06.821Z,78.30
2022-11-28T18:10:33.221Z,71.30
2022-11-28T18:12:59.751Z,70.80
2022-11-28T18:15:26.256Z,70.30
2022-11-28T18:17:52.693Z,70.10
2022-11-28T18:20:19.094Z,70.30
2022-11-28T18:22:45.473Z,70.00
2022-11-28T18:25:11.917Z,69.50
2022-11-28T18:27:38.295Z,69.90
2022-11-28T18:30:04.674Z,69.80
2022-11-28T18:32:31.052Z,69.60
2022-11-28T18:34:57.496Z,69.60
2022-11-28T18:37:24.075Z,69.00
2022-11-28T18:39:50.482Z,67.40
2022-11-28T18:42:16.950Z,67.10
2022-11-28T18:44:43.349Z,66.70
2022-11-28T18:47:09.746Z,66.90
2022-11-28T18:49:36.613Z,67.90
2022-11-28T18:52:03.100Z,66.60
2022-11-28T18:54:29.689Z,66.70
2022-11-28T18:56:56.071Z,66.80
2022-11-28T18:59:22.476Z,66.10
2022-11-28T19:01:48.897Z,65.80
2022-11-28T19:04:15.324Z,66.00
2022-11-28T19:06:41.717Z,66.40
2022-11-28T19:09:08.129Z,66.50
2022-11-28T19:11:34.512Z,65.60
2022-11-28T19:14:01.031Z,65.50
2022-11-28T19:16:27.479Z,65.10
2022-11-28T19:18:53.929Z,65.50
2022-11-28T19:21:20.318Z,65.40
2022-11-28T19:23:46.739Z,65.00
2022-11-28T19:26:13.133Z,64.60
2022-11-28T19:28:39.550Z,64.60
2022-11-28T19:31:05.946Z,64.80
2022-11-28T19:33:32.332Z,64.80
2022-11-28T19:35:58.708Z,64.80
2022-11-28T19:38:25.077Z,64.50
2022-11-28T19:40:51.503Z,64.50
2022-11-28T19:43:18.086Z,64.40
2022-11-28T19:45:44.499Z,64.80
2022-11-28T19:48:10.902Z,64.40
2022-11-28T19:50:37.305Z,64.50
2022-11-28T19:53:03.689Z,64.80
2022-11-28T19:55:30.153Z,65.20
2022-11-28T19:57:56.545Z,65.30
2022-11-28T20:00:22.946Z,65.30
2022-11-28T20:02:49.516Z,65.50
2022-11-28T20:05:15.937Z,66.10
2022-11-28T20:07:42.366Z,65.90
2022-11-28T20:10:08.795Z,66.20
2022-11-28T20:12:35.300Z,55.10
2022-11-28T20:15:01.684Z,54.90
2022-11-28T20:17:28.065Z,54.90
2022-11-28T20:19:54.488Z,54.70
2022-11-28T20:22:20.873Z,54.80
2022-11-28T20:24:47.298Z,54.80
2022-11-28T20:27:13.682Z,54.80
2022-11-28T20:29:40.085Z,54.70
2022-11-28T20:32:06.518Z,54.50
2022-11-28T20:34:32.961Z,54.70
2022-11-28T20:36:59.347Z,54.70
2022-11-28T20:39:25.736Z,54.70
2022-11-28T20:41:52.134Z,54.60
2022-11-28T20:44:18.534Z,54.50
2022-11-28T20:46:44.926Z,54.50
2022-11-28T20:49:11.312Z,54.60
2022-11-28T20:51:37.707Z,54.60
2022-11-28T20:54:04.095Z,54.60
2022-11-28T20:56:30.474Z,54.80
2022-11-28T20:58:56.876Z,54.70
2022-11-28T21:01:23.380Z,54.70
2022-11-28T21:03:49.805Z,54.50
2022-11-28T21:06:16.231Z,54.60
2022-11-28T21:08:42.615Z,54.70
2022-11-28T21:11:08.998Z,54.60
2022-11-28T21:13:35.385Z,54.40
2022-11-28T21:16:01.885Z,55.00
2022-11-28T21:18:28.301Z,54.50
2022-11-28T21:20:54.680Z,54.60
2022-11-28T21:23:21.060Z,54.50
2022-11-28T21:25:47.431Z,54.70
2022-11-28T21:28:13.817Z,54.80
2022-11-28T21:30:40.204Z,54.70
2022-11-28T21:33:06.641Z,54.80
2022-11-28T21:35:33.048Z,54.80
2022-11-28T21:37:59.438Z,54.70
2022-11-28T21:40:25.859Z,54.70
2022-11-28T21:42:52.282Z,54.70
2022-11-28T21:45:18.691Z,54.80
2022-11-28T21:47:45.081Z,54.70
2022-11-28T21:50:11.544Z,54.70
2022-11-28T21:52:37.933Z,54.70
2022-11-28T21:55:04.321Z,54.00
2022-11-28T21:57:30.700Z,54.00
2022-11-28T21:59:57.093Z,54.10
2022-11-28T22:02:29.208Z,54.10
2022-11-28T22:04:57.086Z,54.10
2022-11-28T22:07:23.509Z,54.10
2022-11-28T22:09:49.962Z,54.00
2022-11-28T22:12:16.343Z,54.00
2022-11-28T22:14:42.830Z,54.10
2022-11-28T22:17:09.242Z,54.10
2022-11-28T22:19:35.645Z,54.10
2022-11-28T22:22:02.040Z,54.20
2022-11-28T22:24:28.463Z,54.20
2022-11-28T22:26:54.968Z,54.30
2022-11-28T22:29:21.366Z,54.30
